Terminal Aerodrome Forecast
Issued by NWS Topeka, KS

Home | Current Version | Previous Version | Text Only | Print | Product List | Glossary On
Versions: 1 2 3 4 5 6 7 8 9 10 11 12 13 14 15 16
000
FTUS43 KTOP 291100
TAFTOP
TAF
KTOP 291130Z 2912/3012 09005KT P6SM BKN120
     FM291600 04011KT P6SM SCT040 BKN100
     FM300200 02015KT P6SM BKN030 OVC050
     FM300500 02012KT 6SM -SN BR BKN012 OVC030=

USA.gov is the U.S. government's official web portal to all federal, state and local government web resources and services.